Time;durP1;ratioP1;P1;durP2;ratioP2;P2;SDS_P1;SDS_P2;PMS_P1;PMS_P2;Temp;Humidity;BMP_temperature;BMP_pressure;BME280_temperature;BME280_humidity;BME280_pressure;Samples;Min_cycle;Max_cycle;Signal;HPM_P1;HPM_P2
2022/06/21 16:08:26;;;;;;;4.20;1.30;;;;;;;18.15;50.85;99639.52;102921;1309;558015;-73
2022/06/21 16:10:53;;;;;;;2.90;1.00;;;;;;;18.32;50.48;99640.09;104392;1291;23817;-76
2022/06/21 16:13:34;;;;;;;3.60;1.20;;;;;;;18.47;50.94;99643.19;106877;1280;22558;-84
2022/06/21 16:16:04;;;;;;;4.00;1.10;;;;;;;18.69;50.68;99640.27;106356;1283;22682;-75
2022/06/21 16:18:44;;;;;;;2.80;1.40;;;;;;;18.56;50.75;99644.34;106348;1280;25640;-83
2022/06/21 16:21:14;;;;;;;6.80;2.20;;;;;;;18.45;50.84;99633.36;106038;1280;356101;-75
2022/06/21 16:23:47;;;;;;;2.60;1.30;;;;;;;18.35;51.19;99645.13;105868;1281;24242;-77
2022/06/21 16:26:19;;;;;;;2.20;1.10;;;;;;;18.30;51.63;99641.30;106183;1280;22547;-77
2022/06/21 16:28:56;;;;;;;3.90;1.00;;;;;;;18.12;51.78;99646.45;106005;1274;22566;-78
2022/06/21 16:34:19;;;;;;;2.60;0.80;;;;;;;17.77;52.32;99640.77;105666;1280;25248;-74
2022/06/21 16:36:55;;;;;;;1.30;0.90;;;;;;;17.62;52.43;99645.77;105687;1280;23072;-78
2022/06/21 16:39:42;;;;;;;2.20;0.90;;;;;;;17.57;52.88;99650.64;105726;1280;25378;-73
2022/06/21 16:45:35;;;;;;;3.00;0.90;;;;;;;17.48;53.23;99658.57;105458;1280;22565;-75
2022/06/21 16:48:15;;;;;;;2.10;0.90;;;;;;;17.43;53.51;99659.71;105437;1280;22573;-73
2022/06/21 16:50:44;;;;;;;4.80;1.20;;;;;;;17.36;53.85;99656.16;105906;1275;24337;-75
2022/06/21 16:53:18;;;;;;;2.30;1.00;;;;;;;17.34;54.11;99659.11;106017;1276;25609;-73
2022/06/21 16:55:58;;;;;;;3.50;1.70;;;;;;;17.30;54.13;99663.17;106107;1273;23030;-75
2022/06/21 16:58:51;;;;;;;4.10;1.20;;;;;;;17.28;54.14;99667.01;105954;1276;22553;-76
2022/06/21 17:01:22;;;;;;;3.40;1.00;;;;;;;17.23;54.20;99668.70;105957;1274;25587;-74
2022/06/21 17:03:54;;;;;;;4.70;1.10;;;;;;;17.19;54.32;99670.45;105967;1274;22605;-75
2022/06/21 17:06:22;;;;;;;0.90;0.80;;;;;;;17.11;54.32;99672.08;105928;1277;22544;-77
2022/06/21 17:08:49;;;;;;;1.70;1.30;;;;;;;17.02;54.55;99678.19;106025;1274;24262;-79
2022/06/21 17:11:26;;;;;;;1.60;0.70;;;;;;;16.99;55.04;99678.35;106041;1276;24034;-77
2022/06/21 17:14:03;;;;;;;1.40;0.90;;;;;;;16.98;55.12;99678.88;106341;1275;22617;-75
2022/06/21 17:16:47;;;;;;;5.90;1.50;;;;;;;16.92;55.21;99678.83;106327;1276;25597;-76
2022/06/21 17:19:33;;;;;;;2.40;1.30;;;;;;;16.91;55.52;99683.87;106120;1276;25431;-75
2022/06/21 17:22:04;;;;;;;1.80;1.20;;;;;;;16.88;55.79;99684.70;105958;1279;23785;-75
2022/06/21 17:24:55;;;;;;;2.30;1.10;;;;;;;16.86;55.90;99682.85;106169;1276;22625;-75
2022/06/21 17:27:33;;;;;;;3.30;1.70;;;;;;;16.83;56.01;99687.06;106222;1273;22841;-78
2022/06/21 17:30:14;;;;;;;2.90;1.30;;;;;;;16.81;56.22;99691.42;106077;1274;22554;-75
2022/06/21 17:32:51;;;;;;;2.40;1.20;;;;;;;16.79;56.42;99692.59;106123;1273;22548;-73
2022/06/21 17:35:28;;;;;;;1.90;1.10;;;;;;;16.75;57.01;99690.63;106310;1276;22608;-72
2022/06/21 17:38:23;;;;;;;3.40;1.20;;;;;;;16.75;57.13;99701.31;106668;1276;22591;-72
2022/06/21 17:41:14;;;;;;;3.50;2.20;;;;;;;16.79;57.43;99699.52;106595;1275;22512;-72
2022/06/21 17:43:56;;;;;;;2.50;1.20;;;;;;;16.73;57.51;99700.14;106008;1276;25828;-76
2022/06/21 17:46:24;;;;;;;2.00;1.20;;;;;;;16.73;57.68;99708.69;106241;1273;22553;-75
2022/06/21 17:48:59;;;;;;;2.00;1.40;;;;;;;16.65;58.02;99708.85;106502;1273;24241;-76
2022/06/21 17:51:38;;;;;;;3.50;1.40;;;;;;;16.61;58.41;99711.86;106516;1276;26585;-78
2022/06/21 17:54:17;;;;;;;3.00;1.50;;;;;;;16.54;58.76;99714.14;105597;1282;22560;-81
2022/06/21 17:56:53;;;;;;;5.90;1.60;;;;;;;16.48;59.07;99713.34;105477;1280;24094;-75
2022/06/21 17:59:22;;;;;;;4.30;1.50;;;;;;;16.46;59.19;99714.50;105484;1281;24015;-72
2022/06/21 18:02:09;;;;;;;7.30;1.70;;;;;;;16.41;59.49;99712.02;105528;1280;25350;-75
2022/06/21 18:04:45;;;;;;;3.20;1.30;;;;;;;16.36;59.87;99714.92;105429;1280;22683;-72
2022/06/21 18:07:48;;;;;;;5.10;1.70;;;;;;;16.30;60.04;99714.13;105594;1280;22993;-75
2022/06/21 18:10:20;;;;;;;1.90;1.20;;;;;;;16.26;60.10;99713.79;105605;1280;22568;-75
2022/06/21 18:13:21;;;;;;;4.50;1.30;;;;;;;16.19;60.41;99710.66;105693;1280;22597;-77
2022/06/21 18:16:25;;;;;;;5.10;1.50;;;;;;;16.13;60.51;99708.44;105552;1280;22668;-74
2022/06/21 18:19:00;;;;;;;7.90;1.10;;;;;;;16.06;60.60;99708.20;105685;1277;22885;-74
2022/06/21 18:21:47;;;;;;;3.30;1.20;;;;;;;15.98;61.09;99710.52;106013;1274;25496;-77
2022/06/21 18:24:50;;;;;;;2.70;1.00;;;;;;;15.92;61.42;99716.42;105944;1275;22559;-76
2022/06/21 18:27:16;;;;;;;2.60;1.20;;;;;;;15.84;61.65;99718.52;105949;1275;25436;-75
2022/06/21 18:30:14;;;;;;;5.20;1.60;;;;;;;15.82;61.68;99719.86;106087;1274;24421;-74
2022/06/21 18:32:52;;;;;;;3.10;1.20;;;;;;;15.79;61.80;99717.30;106038;1276;25278;-74
2022/06/21 18:35:21;;;;;;;2.70;1.20;;;;;;;15.77;61.75;99719.17;106165;1276;23042;-74
2022/06/21 18:38:20;;;;;;;1.40;1.00;;;;;;;15.73;61.79;99716.48;106046;1274;22667;-82
2022/06/21 18:41:12;;;;;;;2.80;1.40;;;;;;;15.67;62.04;99720.09;106115;1273;22540;-77
2022/06/21 18:44:14;;;;;;;3.70;1.30;;;;;;;15.70;62.50;99723.36;106228;1274;25400;-74
2022/06/21 18:47:05;;;;;;;3.70;1.10;;;;;;;15.70;62.32;99728.14;106093;1273;22551;-74
2022/06/21 18:50:03;;;;;;;4.20;1.30;;;;;;;15.63;62.24;99731.98;106212;1274;22541;-73
2022/06/21 18:52:54;;;;;;;3.20;1.20;;;;;;;15.57;62.58;99732.73;106894;1282;23322;-81
2022/06/21 18:55:20;;;;;;;6.10;1.40;;;;;;;15.53;62.77;99725.97;106703;1282;24310;-82
2022/06/21 18:57:56;;;;;;;5.40;1.40;;;;;;;15.49;62.78;99733.98;106523;1282;25241;-72
2022/06/21 19:00:55;;;;;;;3.60;1.10;;;;;;;15.45;62.82;99738.91;105539;1282;22550;-72
2022/06/21 19:03:41;;;;;;;1.80;1.30;;;;;;;15.37;62.94;99733.35;105602;1282;22546;-74
2022/06/21 19:09:18;;;;;;;2.20;1.60;;;;;;;15.24;63.15;99743.77;105826;1281;25391;-73
2022/06/21 19:12:08;;;;;;;3.70;1.40;;;;;;;15.22;63.48;99738.71;105318;1281;24282;-72
2022/06/21 19:15:05;;;;;;;2.70;1.10;;;;;;;15.16;63.47;99736.81;105829;1281;25442;-76
2022/06/21 19:17:35;;;;;;;;;;;;;;;15.18;63.62;99743.87;105797;1274;22529;-77
2022/06/21 19:20:17;;;;;;;2.40;1.50;;;;;;;15.16;63.63;99747.30;106241;1273;23025;-75
2022/06/21 19:22:56;;;;;;;2.40;1.30;;;;;;;15.08;63.73;99753.80;106025;1276;22569;-75
2022/06/21 19:25:46;;;;;;;4.40;1.40;;;;;;;15.02;63.74;99761.28;106130;1274;22597;-76
2022/06/21 19:28:16;;;;;;;3.30;1.40;;;;;;;14.97;64.00;99765.40;106459;1273;22574;-74
2022/06/21 19:30:54;;;;;;;3.30;1.60;;;;;;;14.92;64.05;99771.42;106234;1279;22894;-74
2022/06/21 19:33:40;;;;;;;4.00;1.90;;;;;;;14.87;64.24;99769.65;105932;1281;24165;-76
2022/06/21 19:36:16;;;;;;;3.50;1.90;;;;;;;14.85;64.53;99773.96;105796;1279;22666;-75
2022/06/21 19:39:01;;;;;;;;;;;;;;;14.82;64.43;99776.92;106749;1278;24218;-76
2022/06/21 19:41:36;;;;;;;2.90;1.20;;;;;;;14.76;64.81;99776.04;105760;1276;23148;-76
2022/06/21 19:44:23;;;;;;;2.80;1.30;;;;;;;14.72;64.98;99778.14;105748;1279;22540;-77
2022/06/21 19:47:02;;;;;;;2.70;2.00;;;;;;;14.68;65.21;99781.27;105503;1282;25444;-78
2022/06/21 19:49:32;;;;;;;3.00;1.90;;;;;;;14.68;65.53;99782.52;105756;1280;22556;-79
2022/06/21 19:52:07;;;;;;;4.30;1.60;;;;;;;14.63;65.63;99783.77;105634;1281;25286;-80
2022/06/21 19:54:43;;;;;;;2.10;1.60;;;;;;;14.55;65.82;99793.26;105201;1283;25272;-80
2022/06/21 19:57:24;;;;;;;2.50;1.50;;;;;;;14.50;66.19;99789.20;105579;1280;24987;-80
2022/06/21 20:00:10;;;;;;;2.50;1.60;;;;;;;14.50;66.17;99797.86;105731;1277;22566;-79
2022/06/21 20:02:57;;;;;;;;;;;;;;;14.49;66.42;99801.08;106012;1277;22642;-83
2022/06/21 20:05:28;;;;;;;6.60;1.80;;;;;;;14.48;66.54;99803.08;106042;1275;25255;-80
2022/06/21 20:08:02;;;;;;;3.70;2.00;;;;;;;14.47;66.61;99807.35;106120;1277;25251;-78
2022/06/21 20:10:35;;;;;;;3.70;2.00;;;;;;;14.45;66.75;99807.78;106187;1275;25388;-77
2022/06/21 20:13:22;;;;;;;3.80;1.80;;;;;;;14.42;66.71;99806.45;105938;1274;22535;-78
2022/06/21 20:15:57;;;;;;;1.90;1.70;;;;;;;14.41;67.08;99805.43;106063;1275;24224;-78
2022/06/21 20:18:51;;;;;;;3.10;1.60;;;;;;;14.36;66.96;99803.47;106418;1271;25257;-77
2022/06/21 20:21:36;;;;;;;5.90;1.90;;;;;;;14.29;67.05;99799.11;106092;1272;24242;-78
2022/06/21 20:24:25;;;;;;;4.50;1.80;;;;;;;14.20;67.31;99792.52;106157;1271;23925;-77
2022/06/21 20:27:03;;;;;;;5.30;1.60;;;;;;;14.14;67.53;99795.00;106037;1273;24068;-76
2022/06/21 20:29:58;;;;;;;2.20;1.70;;;;;;;14.15;67.83;99793.91;106335;1271;25549;-76
2022/06/21 20:32:47;;;;;;;5.50;1.90;;;;;;;14.18;67.90;99797.89;106130;1272;22654;-74
2022/06/21 20:35:23;;;;;;;2.80;1.60;;;;;;;14.20;68.09;99795.33;106131;1273;24397;-77
2022/06/21 20:38:05;;;;;;;3.60;1.60;;;;;;;14.17;68.31;99799.87;105997;1271;23928;-81
2022/06/21 20:40:43;;;;;;;3.60;1.90;;;;;;;14.12;68.28;99799.86;106141;1271;22565;-80
2022/06/21 20:43:32;;;;;;;5.20;1.70;;;;;;;14.08;68.53;99803.69;106155;1274;24302;-79
2022/06/21 20:46:24;;;;;;;4.20;1.60;;;;;;;14.07;68.59;99807.64;106322;1271;24236;-80
2022/06/21 20:48:57;;;;;;;5.30;1.60;;;;;;;14.03;68.73;99817.12;106415;1271;22535;-79
2022/06/21 20:51:28;;;;;;;4.00;1.80;;;;;;;13.97;69.05;99818.05;106334;1272;24395;-82
2022/06/21 20:54:01;;;;;;;3.10;2.00;;;;;;;13.93;69.29;99827.92;106303;1271;22561;-78
2022/06/21 20:57:01;;;;;;;4.50;2.10;;;;;;;13.91;69.46;99825.31;106378;1271;23376;-80
2022/06/21 20:59:37;;;;;;;1.70;1.50;;;;;;;13.91;69.71;99830.99;106476;1271;22554;-76
2022/06/21 21:02:15;;;;;;;;;;;;;;;13.88;70.09;99834.44;107842;1270;22576;-85
2022/06/21 21:04:57;;;;;;;3.10;1.60;;;;;;;13.93;70.42;99836.20;107640;1271;22680;-81
2022/06/21 21:07:37;;;;;;;2.40;2.00;;;;;;;14.00;70.49;99835.98;106197;1270;25216;-80
2022/06/21 21:10:17;;;;;;;3.10;2.00;;;;;;;14.00;70.20;99835.64;105863;1275;24294;-82
2022/06/21 21:13:15;;;;;;;3.70;1.70;;;;;;;13.97;70.22;99828.64;105971;1274;22535;-79
2022/06/21 21:15:54;;;;;;;5.10;2.30;;;;;;;13.89;70.47;99820.41;106031;1274;22771;-83
2022/06/21 21:18:28;;;;;;;2.40;1.50;;;;;;;13.89;70.76;99823.44;105922;1275;23974;-82
2022/06/21 21:20:59;;;;;;;3.10;1.50;;;;;;;13.84;70.76;99821.80;105826;1277;25267;-77
2022/06/21 21:23:28;;;;;;;3.20;1.90;;;;;;;13.84;70.92;99827.11;105984;1274;22722;-79
2022/06/21 21:26:27;;;;;;;3.00;1.90;;;;;;;13.80;70.82;99832.90;105922;1274;22546;-80
2022/06/21 21:28:58;;;;;;;5.80;1.80;;;;;;;13.79;71.12;99837.20;106119;1271;22551;-82
2022/06/21 21:31:32;;;;;;;5.00;2.00;;;;;;;13.75;71.20;99832.89;106283;1271;22535;-83
2022/06/21 21:34:26;;;;;;;4.50;2.00;;;;;;;13.74;71.41;99826.39;106211;1271;22492;-76
2022/06/21 21:37:11;;;;;;;4.20;2.20;;;;;;;13.72;71.57;99821.14;106362;1271;22553;-80
2022/06/21 21:40:00;;;;;;;4.90;1.90;;;;;;;13.68;71.81;99810.30;106322;1271;25389;-79
2022/06/21 21:43:01;;;;;;;5.40;1.90;;;;;;;13.65;71.75;99813.04;106300;1271;23968;-77
2022/06/21 21:45:28;;;;;;;3.50;2.20;;;;;;;13.64;71.98;99827.73;105887;1278;22567;-74
2022/06/21 21:47:55;;;;;;;5.50;2.10;;;;;;;13.65;71.93;99826.64;105995;1278;22709;-76
2022/06/21 21:50:22;;;;;;;3.20;2.00;;;;;;;13.64;71.98;99831.81;106360;1277;22726;-74
2022/06/21 21:52:52;;;;;;;6.40;2.10;;;;;;;13.64;72.12;99828.97;107209;1277;25223;-75
2022/06/21 21:55:26;;;;;;;7.00;2.30;;;;;;;13.63;72.17;99828.48;106800;1277;25319;-79
2022/06/21 21:57:56;;;;;;;6.70;2.10;;;;;;;13.61;72.21;99831.55;106325;1277;22812;-80
2022/06/21 22:00:35;;;;;;;2.10;2.00;;;;;;;13.58;72.36;99822.43;106062;1278;22700;-83
2022/06/21 22:03:26;;;;;;;2.80;1.90;;;;;;;13.52;72.31;99822.09;107158;1271;22503;-76
2022/06/21 22:05:58;;;;;;;2.30;1.60;;;;;;;13.51;72.51;99826.17;107012;1271;22570;-75
2022/06/21 22:08:39;;;;;;;4.10;2.10;;;;;;;13.50;72.65;99823.54;107038;1271;23868;-76
2022/06/21 22:11:18;;;;;;;3.70;1.90;;;;;;;13.42;72.74;99821.65;106437;1271;22790;-79
2022/06/21 22:13:53;;;;;;;4.40;2.10;;;;;;;13.36;73.01;99819.70;106387;1274;22795;-77
2022/06/21 22:16:40;;;;;;;3.10;1.80;;;;;;;13.33;73.02;99823.68;106585;1271;22750;-75
2022/06/21 22:19:40;;;;;;;4.10;1.90;;;;;;;13.30;73.12;99823.59;106752;1271;24353;-74
2022/06/21 22:22:22;;;;;;;5.30;2.20;;;;;;;13.25;73.28;99818.44;106295;1271;22539;-81
2022/06/21 22:24:50;;;;;;;3.70;2.30;;;;;;;13.23;73.37;99819.71;106661;1271;22596;-82
2022/06/21 22:27:23;;;;;;;2.90;1.80;;;;;;;13.17;73.40;99820.09;106447;1270;22665;-80
2022/06/21 22:29:50;;;;;;;4.50;2.30;;;;;;;13.13;73.64;99823.18;106444;1270;25583;-78
2022/06/21 22:32:26;;;;;;;3.80;2.60;;;;;;;13.10;73.94;99819.39;106283;1271;24379;-82
2022/06/21 22:34:55;;;;;;;4.50;2.10;;;;;;;13.04;74.02;99822.04;106509;1270;25325;-82
2022/06/21 22:37:28;;;;;;;3.70;2.10;;;;;;;12.97;74.07;99825.40;106723;1271;24387;-81
2022/06/21 22:40:01;;;;;;;4.30;2.00;;;;;;;12.96;74.14;99829.13;106725;1271;22559;-82
2022/06/21 22:42:30;;;;;;;6.20;2.20;;;;;;;12.94;74.40;99836.98;106534;1271;22579;-81
2022/06/21 22:45:02;;;;;;;3.70;2.40;;;;;;;12.94;74.30;99841.05;106537;1271;22695;-81
2022/06/21 22:47:33;;;;;;;4.30;2.20;;;;;;;12.93;74.42;99847.44;107051;1271;22558;-80
2022/06/21 22:50:10;;;;;;;6.30;2.20;;;;;;;12.91;74.42;99849.79;108590;1271;22567;-81
2022/06/21 22:52:42;;;;;;;3.80;2.40;;;;;;;12.85;74.46;99852.77;108951;1270;22833;-81
2022/06/21 22:55:15;;;;;;;3.10;2.00;;;;;;;12.81;74.66;99854.83;107467;1274;22566;-80
2022/06/21 22:57:48;;;;;;;2.80;2.00;;;;;;;12.74;74.79;99845.83;107167;1270;22478;-85
2022/06/21 23:00:22;;;;;;;5.20;2.40;;;;;;;12.74;74.83;99846.89;108160;1271;22534;-85
2022/06/21 23:02:55;;;;;;;3.60;2.20;;;;;;;12.72;74.94;99847.83;109533;1270;22653;-83
2022/06/21 23:05:43;;;;;;;5.80;1.90;;;;;;;12.69;75.02;99849.32;109583;1270;22641;-82
2022/06/21 23:08:12;;;;;;;5.60;2.20;;;;;;;12.64;75.11;99851.20;109479;1270;22551;-81
2022/06/21 23:10:50;;;;;;;3.00;2.30;;;;;;;12.66;75.26;99851.86;107154;1270;24281;-79
2022/06/21 23:13:21;;;;;;;4.60;1.80;;;;;;;12.68;75.23;99851.27;106308;1270;25537;-84
2022/06/21 23:15:58;;;;;;;3.10;2.10;;;;;;;12.67;75.15;99849.02;106276;1270;22544;-83
2022/06/21 23:18:40;;;;;;;6.60;1.70;;;;;;;12.66;75.07;99850.09;106369;1271;22602;-80
2022/06/21 23:21:12;;;;;;;2.80;1.90;;;;;;;12.67;75.05;99856.95;106053;1274;22544;-80
2022/06/21 23:23:44;;;;;;;2.60;1.90;;;;;;;12.74;75.09;99861.20;106066;1274;22538;-81
2022/06/21 23:26:25;;;;;;;2.40;1.90;;;;;;;12.76;74.91;99867.33;105958;1275;22673;-79
2022/06/21 23:28:52;;;;;;;1.90;1.70;;;;;;;12.69;74.91;99869.98;106037;1275;24288;-77
2022/06/21 23:31:19;;;;;;;3.70;2.40;;;;;;;12.61;74.91;99864.52;106011;1275;23925;-77
2022/06/21 23:33:46;;;;;;;3.10;1.80;;;;;;;12.63;74.97;99866.42;105867;1274;22573;-78
2022/06/21 23:36:20;;;;;;;3.70;2.80;;;;;;;12.66;74.92;99868.30;105907;1274;22849;-79
2022/06/21 23:38:55;;;;;;;2.40;2.10;;;;;;;12.63;74.91;99868.72;106009;1272;23930;-77
2022/06/21 23:41:22;;;;;;;3.40;1.80;;;;;;;12.65;74.95;99866.21;106250;1270;22577;-75
2022/06/21 23:43:58;;;;;;;4.40;2.20;;;;;;;12.63;74.99;99870.29;106189;1272;23993;-79
2022/06/21 23:46:29;;;;;;;5.60;2.10;;;;;;;12.60;74.97;99873.22;106122;1270;24233;-77
2022/06/21 23:49:06;;;;;;;4.00;2.00;;;;;;;12.58;75.02;99872.02;106294;1270;25228;-79
2022/06/21 23:51:38;;;;;;;6.30;1.80;;;;;;;12.63;75.16;99869.26;105855;1276;22556;-81
2022/06/21 23:54:06;;;;;;;2.50;1.90;;;;;;;12.65;74.97;99868.14;105734;1276;25356;-77
2022/06/21 23:56:43;;;;;;;2.20;1.80;;;;;;;12.61;74.77;99870.35;105714;1278;23929;-80
2022/06/21 23:59:12;;;;;;;3.00;1.80;;;;;;;12.54;74.88;99868.60;105698;1276;22555;-75
